Time;durP1;ratioP1;P1;durP2;ratioP2;P2;SDS_P1;SDS_P2;PMS_P1;PMS_P2;Temp;Humidity;BMP_temperature;BMP_pressure;BME280_temperature;BME280_humidity;BME280_pressure;Samples;Min_cycle;Max_cycle;Signal;HPM_P1;HPM_P2
2021/03/10 00:00:18;;;;;;;45.80;25.55;;;2.10;99.90;;;;;;5076339;28;20084;-84
2021/03/10 00:02:45;;;;;;;39.25;23.65;;;2.10;99.90;;;;;;5075895;28;20131;-83
2021/03/10 00:05:12;;;;;;;42.22;23.70;;;2.20;99.90;;;;;;5076328;28;20110;-84
2021/03/10 00:07:39;;;;;;;46.67;23.75;;;2.10;99.90;;;;;;5075869;28;20045;-84
2021/03/10 00:10:10;;;;;;;42.97;23.23;;;2.10;99.90;;;;;;5076179;28;20094;-84
2021/03/10 00:12:37;;;;;;;39.45;23.20;;;2.10;99.90;;;;;;5076175;28;20060;-84
2021/03/10 00:15:07;;;;;;;40.42;23.42;;;2.20;99.90;;;;;;5076032;28;20080;-84
2021/03/10 00:17:34;;;;;;;43.53;23.92;;;2.20;99.90;;;;;;5075000;28;20045;-84
2021/03/10 00:20:01;;;;;;;43.08;23.70;;;2.20;99.90;;;;;;5075226;28;20418;-85
2021/03/10 00:22:28;;;;;;;42.95;24.77;;;2.20;99.90;;;;;;5075760;28;20129;-85
2021/03/10 00:24:54;;;;;;;47.63;24.20;;;2.20;99.90;;;;;;5075574;28;20052;-84
2021/03/10 00:27:23;;;;;;;44.22;24.05;;;2.20;99.90;;;;;;5075754;28;20506;-84
2021/03/10 00:29:57;;;;;;;48.50;26.35;;;2.20;99.90;;;;;;5075552;28;20048;-83
2021/03/10 00:32:29;;;;;;;46.55;24.75;;;2.30;99.90;;;;;;5075781;28;20098;-83
2021/03/10 00:34:57;;;;;;;44.53;24.23;;;2.20;99.90;;;;;;5075141;28;20453;-84
2021/03/10 00:37:24;;;;;;;43.47;25.08;;;2.20;99.90;;;;;;5076245;28;20122;-84
2021/03/10 00:39:51;;;;;;;44.05;24.38;;;2.20;99.90;;;;;;5074932;28;20094;-84
2021/03/10 00:42:18;;;;;;;45.72;24.83;;;2.20;99.90;;;;;;5075091;28;20044;-84
2021/03/10 00:44:44;;;;;;;44.97;24.55;;;2.10;99.90;;;;;;5076636;28;20055;-84
2021/03/10 00:47:11;;;;;;;46.63;24.70;;;2.10;99.90;;;;;;5074831;28;20083;-84
2021/03/10 00:49:39;;;;;;;45.70;23.63;;;2.00;99.90;;;;;;5076834;28;20076;-84
2021/03/10 00:52:06;;;;;;;42.17;23.33;;;2.00;99.90;;;;;;5076178;28;20139;-84
2021/03/10 00:54:33;;;;;;;46.80;24.35;;;2.10;99.90;;;;;;5075652;28;20135;-83
2021/03/10 00:56:59;;;;;;;48.65;25.50;;;2.10;99.90;;;;;;5075230;28;20074;-84
2021/03/10 00:59:25;;;;;;;53.97;27.48;;;2.00;99.90;;;;;;5075914;28;20469;-84
2021/03/10 01:01:52;;;;;;;51.80;25.77;;;1.90;99.90;;;;;;5075143;28;20064;-84
2021/03/10 01:04:19;;;;;;;53.58;26.45;;;2.00;99.90;;;;;;5075027;28;20057;-84
2021/03/10 01:06:45;;;;;;;59.00;27.55;;;2.00;99.90;;;;;;5075212;28;20150;-84
2021/03/10 01:09:11;;;;;;;52.40;26.35;;;2.00;99.90;;;;;;5076385;28;20079;-84
2021/03/10 01:11:38;;;;;;;53.58;26.42;;;2.00;99.90;;;;;;5074768;28;20139;-84
2021/03/10 01:14:04;;;;;;;49.13;26.02;;;1.90;99.90;;;;;;5075575;28;20048;-84
2021/03/10 01:16:31;;;;;;;52.75;26.60;;;1.90;99.90;;;;;;5074854;28;20135;-84
2021/03/10 01:18:58;;;;;;;55.75;27.92;;;1.90;99.90;;;;;;5074463;28;20044;-84
2021/03/10 01:21:24;;;;;;;55.00;28.80;;;1.80;99.90;;;;;;5075850;28;20519;-84
2021/03/10 01:23:51;;;;;;;58.80;28.27;;;1.70;99.90;;;;;;5075734;28;20127;-83
2021/03/10 01:26:17;;;;;;;56.38;28.30;;;1.70;99.90;;;;;;5074415;28;20087;-84
2021/03/10 01:28:44;;;;;;;47.97;27.15;;;1.70;99.90;;;;;;5074489;28;20044;-83
2021/03/10 01:31:10;;;;;;;55.25;27.08;;;1.90;99.90;;;;;;5074356;28;20099;-84
2021/03/10 01:33:36;;;;;;;48.75;25.77;;;1.90;99.90;;;;;;5074454;28;20048;-84
2021/03/10 01:36:11;;;;;;;48.00;24.02;;;2.00;99.90;;;;;;5073160;28;20040;-84
2021/03/10 01:38:38;;;;;;;48.38;25.45;;;2.00;99.90;;;;;;5075541;28;20052;-84
2021/03/10 01:41:05;;;;;;;45.53;24.45;;;2.10;99.90;;;;;;5074417;28;20459;-84
2021/03/10 01:43:32;;;;;;;46.75;25.05;;;2.10;99.90;;;;;;5074184;28;20056;-84
2021/03/10 01:45:58;;;;;;;46.13;25.23;;;2.10;99.90;;;;;;5074367;28;20555;-84
2021/03/10 01:48:25;;;;;;;43.90;24.50;;;2.00;99.90;;;;;;5075366;28;20090;-83
2021/03/10 01:50:52;;;;;;;48.05;26.38;;;2.10;99.90;;;;;;5074628;28;20501;-84
2021/03/10 01:53:19;;;;;;;48.70;25.67;;;2.10;99.90;;;;;;5074683;28;20048;-84
2021/03/10 01:55:47;;;;;;;44.28;24.65;;;2.00;99.90;;;;;;5075298;28;20137;-84
2021/03/10 01:58:13;;;;;;;55.78;27.10;;;2.00;99.90;;;;;;5074646;28;20044;-84
2021/03/10 02:00:40;;;;;;;50.33;25.48;;;1.90;99.90;;;;;;5073897;28;20044;-84
2021/03/10 02:03:07;;;;;;;51.50;28.05;;;1.90;99.90;;;;;;5073934;28;20118;-83
2021/03/10 02:05:34;;;;;;;57.75;29.65;;;1.90;99.90;;;;;;5074302;28;20053;-83
2021/03/10 02:08:26;;;;;;;54.55;27.65;;;1.90;99.90;;;;;;5073958;28;20080;-84
2021/03/10 02:11:08;;;;;;;61.53;29.63;;;1.90;99.90;;;;;;5073598;28;20056;-84
2021/03/10 02:14:14;;;;;;;57.42;28.67;;;1.90;99.90;;;;;;5073740;28;20496;-84
2021/03/10 02:16:44;;;;;;;50.33;27.40;;;1.90;99.90;;;;;;5064817;28;20117;-84
2021/03/10 02:19:50;;;;;;;63.25;30.63;;;2.00;99.90;;;;;;5074423;28;20060;-84
2021/03/10 02:22:41;;;;;;;57.47;29.23;;;1.90;99.90;;;;;;5051153;28;20454;-84
2021/03/10 02:25:33;;;;;;;63.22;29.73;;;1.80;99.90;;;;;;5073442;28;20094;-84
2021/03/10 02:28:02;;;;;;;57.38;29.05;;;1.80;99.90;;;;;;5073514;28;20048;-84
2021/03/10 02:30:44;;;;;;;54.95;28.77;;;1.90;99.90;;;;;;5073267;28;20129;-84
2021/03/10 02:33:16;;;;;;;55.10;27.95;;;1.90;99.90;;;;;;5073127;28;20041;-84
2021/03/10 02:35:50;;;;;;;48.15;27.00;;;2.10;99.90;;;;;;5073424;28;20500;-84
2021/03/10 02:38:20;;;;;;;52.85;28.55;;;2.10;99.90;;;;;;5074594;28;20041;-84
2021/03/10 02:40:48;;;;;;;49.90;26.92;;;2.10;99.90;;;;;;5073644;28;20086;-84
2021/03/10 02:43:15;;;;;;;51.67;27.50;;;2.10;99.90;;;;;;5072938;28;20075;-84
2021/03/10 02:45:43;;;;;;;47.85;27.15;;;2.10;99.90;;;;;;5074216;28;20496;-84
2021/03/10 02:48:12;;;;;;;48.92;26.05;;;2.10;99.90;;;;;;5073474;28;20462;-84
2021/03/10 02:50:39;;;;;;;47.15;25.40;;;2.10;99.90;;;;;;5073262;28;20055;-84
2021/03/10 02:53:08;;;;;;;45.80;23.70;;;2.20;99.90;;;;;;5073993;28;20053;-84
2021/03/10 02:55:35;;;;;;;46.25;25.05;;;2.20;99.90;;;;;;5073956;28;20132;-83
2021/03/10 02:58:01;;;;;;;45.33;23.75;;;2.20;99.90;;;;;;5073896;28;20402;-84
2021/03/10 03:00:29;;;;;;;47.45;25.33;;;2.20;99.90;;;;;;5073370;28;20072;-84
2021/03/10 03:02:55;;;;;;;49.97;24.35;;;2.20;99.90;;;;;;5073024;28;20459;-84
2021/03/10 03:05:22;;;;;;;46.67;25.35;;;2.20;99.90;;;;;;5072932;28;20063;-84
2021/03/10 03:07:49;;;;;;;50.08;26.30;;;2.20;99.90;;;;;;5072825;28;20143;-83
2021/03/10 03:10:21;;;;;;;57.53;26.77;;;2.10;99.90;;;;;;5072899;28;20099;-84
2021/03/10 03:12:48;;;;;;;50.53;27.27;;;1.90;99.90;;;;;;5073733;28;20082;-84
2021/03/10 03:15:16;;;;;;;47.80;26.48;;;2.00;99.90;;;;;;5072687;28;20310;-84
2021/03/10 03:17:45;;;;;;;49.92;25.58;;;2.00;99.90;;;;;;5072753;28;20048;-84
2021/03/10 03:20:14;;;;;;;51.75;26.13;;;2.10;99.90;;;;;;5072696;28;20052;-83
2021/03/10 03:22:43;;;;;;;57.22;28.55;;;2.10;99.90;;;;;;5073132;28;20101;-84
2021/03/10 03:25:13;;;;;;;56.78;28.27;;;1.90;99.90;;;;;;5074448;28;20412;-84
2021/03/10 03:27:41;;;;;;;50.58;26.60;;;1.80;99.90;;;;;;5073466;28;20050;-84
2021/03/10 03:30:09;;;;;;;56.45;26.17;;;1.80;99.90;;;;;;5073247;28;20140;-84
2021/03/10 03:32:37;;;;;;;54.05;26.75;;;1.90;99.90;;;;;;5073581;28;20055;-83
2021/03/10 03:35:06;;;;;;;50.88;26.42;;;2.00;99.90;;;;;;5072599;28;20076;-84
2021/03/10 03:37:44;;;;;;;49.15;27.00;;;2.10;99.90;;;;;;5074140;28;20048;-84
2021/03/10 03:40:11;;;;;;;44.22;25.95;;;2.10;99.90;;;;;;5073463;28;20568;-83
2021/03/10 03:42:38;;;;;;;47.05;26.23;;;2.20;99.90;;;;;;5073202;28;20048;-83
2021/03/10 03:45:06;;;;;;;43.60;24.13;;;2.20;99.90;;;;;;5073173;28;20080;-83
2021/03/10 03:47:33;;;;;;;43.80;25.02;;;2.20;99.90;;;;;;5074226;28;20131;-83
2021/03/10 03:50:00;;;;;;;44.35;24.80;;;2.20;99.90;;;;;;5073348;28;20056;-84
2021/03/10 03:52:26;;;;;;;42.63;24.58;;;2.20;99.90;;;;;;5073329;28;20058;-84
2021/03/10 03:54:53;;;;;;;44.38;25.35;;;2.20;99.90;;;;;;5072611;28;20041;-84
2021/03/10 03:57:19;;;;;;;43.08;24.23;;;2.20;99.90;;;;;;5073181;28;20056;-83
2021/03/10 03:59:45;;;;;;;48.00;24.50;;;2.20;99.90;;;;;;5074305;28;20052;-83
2021/03/10 04:02:12;;;;;;;41.20;23.60;;;2.20;99.90;;;;;;5073338;28;20049;-84
2021/03/10 04:04:39;;;;;;;43.00;24.63;;;2.20;99.90;;;;;;5073188;28;20080;-83
2021/03/10 04:07:05;;;;;;;44.60;24.85;;;2.20;99.90;;;;;;5072620;28;20493;-84
2021/03/10 04:09:31;;;;;;;39.00;23.42;;;2.20;99.90;;;;;;5072771;28;20138;-84
2021/03/10 04:11:57;;;;;;;42.17;23.75;;;2.20;99.90;;;;;;5073226;28;20048;-83
2021/03/10 04:14:24;;;;;;;40.47;25.67;;;2.30;99.90;;;;;;5073884;28;20056;-83
2021/03/10 04:16:50;;;;;;;45.30;25.88;;;2.30;99.90;;;;;;5073911;28;20052;-83
2021/03/10 04:19:16;;;;;;;38.83;23.02;;;2.20;99.90;;;;;;5072147;28;20052;-83
2021/03/10 04:21:43;;;;;;;37.70;22.25;;;2.30;99.90;;;;;;5073753;28;20495;-83
2021/03/10 04:24:09;;;;;;;42.42;23.30;;;2.20;99.90;;;;;;5076054;28;20098;-84
2021/03/10 04:26:36;;;;;;;40.70;23.52;;;2.20;99.90;;;;;;5076033;28;20454;-83
2021/03/10 04:29:02;;;;;;;43.42;23.95;;;2.20;99.90;;;;;;5077065;28;20092;-84
2021/03/10 04:31:28;;;;;;;41.53;23.60;;;2.30;99.90;;;;;;5075643;28;20059;-84
2021/03/10 04:33:55;;;;;;;40.10;23.80;;;2.20;99.90;;;;;;5075880;28;20500;-84
2021/03/10 04:36:21;;;;;;;40.42;23.60;;;2.30;99.90;;;;;;5075729;28;20050;-84
2021/03/10 04:38:47;;;;;;;39.97;23.15;;;2.30;99.90;;;;;;5075671;28;20485;-84
2021/03/10 04:41:13;;;;;;;37.95;22.60;;;2.30;99.90;;;;;;5075690;28;20499;-84
2021/03/10 04:43:40;;;;;;;38.38;23.52;;;2.40;99.90;;;;;;5077262;28;20044;-83
2021/03/10 04:46:07;;;;;;;40.55;23.15;;;2.40;99.90;;;;;;5076010;28;20044;-84
2021/03/10 04:48:33;;;;;;;39.67;22.80;;;2.30;99.90;;;;;;5076085;28;20052;-84
2021/03/10 04:51:00;;;;;;;44.00;23.95;;;2.20;99.90;;;;;;5075598;28;20048;-84
2021/03/10 04:53:26;;;;;;;42.38;23.00;;;2.20;99.90;;;;;;5076932;28;20132;-83
2021/03/10 04:55:52;;;;;;;140.45;59.45;;;2.20;99.90;;;;;;5075588;28;20084;-84
2021/03/10 04:58:18;;;;;;;69.22;35.97;;;2.10;99.90;;;;;;5075451;28;20059;-83
2021/03/10 05:00:45;;;;;;;74.88;34.45;;;2.10;99.90;;;;;;5075474;28;20104;-83
2021/03/10 05:03:11;;;;;;;81.30;33.85;;;2.20;99.90;;;;;;5075270;28;20064;-84
2021/03/10 05:05:38;;;;;;;147.10;56.08;;;2.20;99.90;;;;;;5075132;28;20072;-84
2021/03/10 05:08:05;;;;;;;47.63;25.83;;;2.20;99.90;;;;;;5075574;28;20131;-84
2021/03/10 05:10:31;;;;;;;46.60;23.88;;;2.30;99.90;;;;;;5075669;28;20083;-83
2021/03/10 05:12:57;;;;;;;139.15;53.63;;;2.30;99.90;;;;;;5075485;28;20052;-83
2021/03/10 05:15:26;;;;;;;65.90;31.83;;;2.10;99.90;;;;;;5076648;28;20475;-82
2021/03/10 05:17:52;;;;;;;56.35;27.75;;;2.00;99.90;;;;;;5079877;28;20051;-81
2021/03/10 05:20:19;;;;;;;45.70;24.33;;;1.70;99.90;;;;;;5081898;28;20087;-82
2021/03/10 05:22:45;;;;;;;48.35;25.38;;;1.50;99.90;;;;;;5083647;28;20045;-81
2021/03/10 05:25:12;;;;;;;50.42;24.52;;;1.50;99.90;;;;;;5082763;28;20135;-81
2021/03/10 05:27:38;;;;;;;50.00;24.15;;;1.30;99.90;;;;;;5083498;28;20055;-80
2021/03/10 05:30:08;;;;;;;58.83;27.17;;;1.30;99.90;;;;;;5082765;28;20057;-81
2021/03/10 05:32:35;;;;;;;72.35;34.75;;;1.30;99.90;;;;;;5083065;28;20053;-81
2021/03/10 05:35:02;;;;;;;58.40;27.60;;;1.30;99.90;;;;;;5082059;28;20075;-81
2021/03/10 05:37:29;;;;;;;55.28;27.70;;;1.30;99.90;;;;;;5083187;28;20052;-81
2021/03/10 05:39:55;;;;;;;62.88;27.55;;;1.30;99.90;;;;;;5081890;28;20045;-81
2021/03/10 05:42:22;;;;;;;55.22;28.73;;;1.30;99.90;;;;;;5083612;28;20048;-81
2021/03/10 05:44:52;;;;;;;53.40;28.13;;;1.40;99.90;;;;;;5083955;28;20048;-82
2021/03/10 05:47:19;;;;;;;63.80;30.40;;;1.40;99.90;;;;;;5082034;28;20048;-82
2021/03/10 05:49:47;;;;;;;68.10;30.92;;;1.30;99.90;;;;;;5081030;28;20052;-81
2021/03/10 05:52:16;;;;;;;74.88;34.67;;;1.30;99.90;;;;;;5082292;28;20068;-82
2021/03/10 05:54:44;;;;;;;73.22;31.83;;;1.30;99.90;;;;;;5084868;28;20056;-82
2021/03/10 05:57:11;;;;;;;77.05;34.67;;;1.30;99.90;;;;;;5081693;28;20051;-81
2021/03/10 05:59:38;;;;;;;76.90;34.40;;;1.30;99.90;;;;;;5083804;28;20050;-81
2021/03/10 06:02:05;;;;;;;75.07;32.17;;;1.20;99.90;;;;;;5082571;28;20456;-81
2021/03/10 06:04:38;;;;;;;68.03;31.40;;;1.20;99.90;;;;;;5082310;28;20540;-81
2021/03/10 06:07:05;;;;;;;;;;;1.10;99.90;;;;;;5082648;28;20489;-81
2021/03/10 06:09:38;;;;;;;91.78;38.78;;;1.10;99.90;;;;;;5082885;28;19927;-81
2021/03/10 06:12:04;;;;;;;94.40;39.78;;;1.00;99.90;;;;;;5084072;28;20040;-81
2021/03/10 06:14:31;;;;;;;85.33;39.20;;;1.10;99.90;;;;;;5082121;28;20129;-81
2021/03/10 06:17:08;;;;;;;80.60;35.53;;;1.10;99.90;;;;;;5082750;28;20381;-82
2021/03/10 06:19:44;;;;;;;84.47;34.00;;;1.20;99.90;;;;;;5082264;28;20037;-82
2021/03/10 06:22:12;;;;;;;65.95;31.52;;;1.20;99.90;;;;;;5080910;28;20052;-81
2021/03/10 06:24:39;;;;;;;58.75;29.17;;;1.20;99.90;;;;;;5081306;28;20165;-82
2021/03/10 06:27:06;;;;;;;69.43;30.95;;;1.30;99.90;;;;;;5082799;28;20083;-82
2021/03/10 06:29:33;;;;;;;68.53;30.83;;;1.30;99.90;;;;;;5081720;28;20093;-81
2021/03/10 06:32:08;;;;;;;61.42;30.45;;;1.40;99.90;;;;;;5080787;28;20055;-82
2021/03/10 06:34:44;;;;;;;69.07;30.45;;;1.40;99.90;;;;;;5080178;28;20080;-81
2021/03/10 06:37:12;;;;;;;80.88;33.60;;;1.40;99.90;;;;;;5080480;28;20537;-82
2021/03/10 06:40:14;;;;;;;70.10;29.73;;;1.40;99.90;;;;;;5081250;28;20101;-82
2021/03/10 06:42:55;;;;;;;64.50;29.40;;;1.40;99.90;;;;;;5060901;28;20056;-82
2021/03/10 06:45:31;;;;;;;75.35;32.20;;;1.50;99.90;;;;;;5062377;28;20048;-82
2021/03/10 06:47:57;;;;;;;68.82;30.90;;;1.50;99.90;;;;;;5061305;28;20053;-82
2021/03/10 06:50:37;;;;;;;76.88;33.22;;;1.60;99.90;;;;;;5061865;28;20087;-82
2021/03/10 06:53:04;;;;;;;73.50;31.63;;;1.70;99.90;;;;;;5061163;28;20056;-82
2021/03/10 06:55:37;;;;;;;78.45;32.25;;;1.80;99.90;;;;;;5061041;28;20048;-82
2021/03/10 06:58:04;;;;;;;74.95;32.50;;;1.80;99.90;;;;;;5061863;28;20047;-82
2021/03/10 07:00:31;;;;;;;69.47;32.63;;;1.90;99.90;;;;;;5063103;28;20071;-82
2021/03/10 07:02:58;;;;;;;68.70;34.05;;;2.10;99.90;;;;;;5061217;28;20072;-83
2021/03/10 07:05:25;;;;;;;86.63;35.60;;;2.20;99.90;;;;;;5062752;28;20489;-82
2021/03/10 07:07:56;;;;;;;59.45;30.90;;;2.30;99.90;;;;;;5060972;28;20091;-82
2021/03/10 07:10:24;;;;;;;63.15;33.33;;;2.40;99.90;;;;;;5080932;28;20052;-82
2021/03/10 07:12:51;;;;;;;65.68;35.45;;;2.50;99.90;;;;;;5081752;28;20048;-82
2021/03/10 07:15:18;;;;;;;71.10;37.65;;;2.60;99.90;;;;;;5081581;28;20044;-82
2021/03/10 07:17:45;;;;;;;59.85;34.80;;;2.70;99.90;;;;;;5082074;28;20520;-82
2021/03/10 07:20:13;;;;;;;57.45;34.47;;;2.90;99.90;;;;;;5081404;28;20083;-82
2021/03/10 07:22:53;;;;;;;52.03;30.58;;;3.10;99.90;;;;;;5081934;28;20051;-83
2021/03/10 07:25:47;;;;;;;46.20;25.88;;;3.10;99.90;;;;;;5078913;28;20109;-83
2021/03/10 07:28:25;;;;;;;48.47;25.88;;;3.20;99.90;;;;;;5079027;28;20048;-83
2021/03/10 07:30:52;;;;;;;49.58;28.33;;;3.30;99.90;;;;;;5079221;28;20108;-82
2021/03/10 07:33:20;;;;;;;41.50;26.20;;;3.50;99.90;;;;;;5079685;28;20485;-82
2021/03/10 07:35:56;;;;;;;49.38;24.48;;;3.60;99.90;;;;;;5079164;28;20074;-83
2021/03/10 07:38:37;;;;;;;44.63;24.08;;;3.80;99.90;;;;;;5079062;28;20045;-83
2021/03/10 07:41:11;;;;;;;42.45;24.02;;;3.70;99.90;;;;;;5079263;28;20128;-83
2021/03/10 07:43:39;;;;;;;37.90;22.27;;;3.80;99.90;;;;;;5079341;28;20504;-83
2021/03/10 07:46:20;;;;;;;44.70;23.80;;;4.00;99.90;;;;;;5080320;28;20067;-83
2021/03/10 07:48:47;;;;;;;41.35;22.00;;;4.10;99.90;;;;;;5061471;28;20064;-83
2021/03/10 07:51:27;;;;;;;37.30;20.58;;;4.50;99.90;;;;;;5058273;28;20045;-83
2021/03/10 07:53:53;;;;;;;42.33;20.58;;;4.50;99.90;;;;;;5061120;28;20132;-84
2021/03/10 07:56:31;;;;;;;42.00;21.08;;;4.60;99.90;;;;;;5062563;28;20472;-83
2021/03/10 07:59:18;;;;;;;39.25;19.77;;;4.50;99.90;;;;;;5064661;28;20056;-83
2021/03/10 08:01:46;;;;;;;38.90;19.33;;;4.50;99.90;;;;;;5064420;28;20068;-83
2021/03/10 08:04:17;;;;;;;43.83;19.05;;;4.70;99.90;;;;;;5063998;28;20107;-82
2021/03/10 08:06:55;;;;;;;44.72;19.52;;;5.00;99.90;;;;;;5064703;28;20103;-83
2021/03/10 08:09:26;;;;;;;33.42;18.13;;;5.00;99.90;;;;;;5064236;28;20052;-82
2021/03/10 08:12:03;;;;;;;31.50;17.85;;;5.10;99.90;;;;;;5064048;28;20048;-83
2021/03/10 08:14:44;;;;;;;33.22;18.27;;;5.20;99.90;;;;;;5065444;28;20083;-82
2021/03/10 08:17:28;;;;;;;30.10;17.77;;;5.40;99.90;;;;;;5064323;28;20076;-83
2021/03/10 08:19:58;;;;;;;36.90;16.40;;;5.20;99.90;;;;;;5064302;28;20045;-84
2021/03/10 08:22:29;;;;;;;32.53;16.17;;;5.10;99.90;;;;;;5064639;28;20049;-82
2021/03/10 08:24:58;;;;;;;32.00;18.60;;;5.30;99.90;;;;;;5048113;28;20049;-83
2021/03/10 08:27:36;;;;;;;32.30;17.00;;;5.10;99.90;;;;;;5064071;28;20045;-83
2021/03/10 08:30:09;;;;;;;28.10;16.30;;;5.00;99.90;;;;;;5064125;28;20065;-83
2021/03/10 08:32:36;;;;;;;28.75;15.55;;;5.10;99.90;;;;;;5048096;28;20049;-83
2021/03/10 08:35:14;;;;;;;25.60;15.02;;;5.30;99.90;;;;;;5046988;28;20113;-83
2021/03/10 08:37:55;;;;;;;27.63;16.83;;;5.60;99.90;;;;;;5047760;28;20083;-83
2021/03/10 08:40:25;;;;;;;29.38;16.65;;;5.80;99.90;;;;;;5063316;28;20048;-83
2021/03/10 08:42:55;;;;;;;28.65;16.65;;;6.20;99.90;;;;;;5064169;28;20053;-83
2021/03/10 08:45:31;;;;;;;34.70;18.88;;;6.00;99.90;;;;;;5047018;28;20053;-83
2021/03/10 08:48:16;;;;;;;33.95;18.75;;;5.50;99.90;;;;;;5046995;28;20048;-83
2021/03/10 08:50:47;;;;;;;26.52;16.50;;;5.10;99.90;;;;;;5064931;28;20099;-84
2021/03/10 08:53:23;;;;;;;24.20;15.07;;;5.40;99.90;;;;;;5063632;28;20057;-83
2021/03/10 08:55:51;;;;;;;26.17;14.40;;;6.00;99.90;;;;;;5063014;28;20056;-83
2021/03/10 08:58:19;;;;;;;24.23;15.00;;;6.40;99.90;;;;;;5046640;28;20053;-83
2021/03/10 09:00:46;;;;;;;24.50;15.35;;;7.30;99.90;;;;;;5062798;28;20045;-83
2021/03/10 09:03:27;;;;;;;27.33;14.73;;;7.90;99.90;;;;;;5048087;28;20100;-84
2021/03/10 09:06:00;;;;;;;28.25;17.40;;;8.60;99.90;;;;;;5046946;28;20059;-83
2021/03/10 09:08:27;;;;;;;63.33;36.15;;;8.80;99.90;;;;;;5063213;28;20049;-83
2021/03/10 09:10:55;;;;;;;27.00;16.23;;;8.70;99.90;;;;;;5065008;28;20053;-83
2021/03/10 09:13:24;;;;;;;18.77;12.93;;;8.90;99.90;;;;;;5046709;28;20071;-83
2021/03/10 09:15:51;;;;;;;17.60;12.07;;;9.00;99.90;;;;;;5064791;28;20045;-83
2021/03/10 09:18:18;;;;;;;17.75;12.45;;;8.60;99.90;;;;;;5063183;28;20045;-83
2021/03/10 09:20:48;;;;;;;18.85;12.90;;;8.30;99.90;;;;;;5062895;28;20049;-83
2021/03/10 09:23:27;;;;;;;19.38;12.75;;;8.20;99.90;;;;;;5063087;28;20539;-83
2021/03/10 09:26:08;;;;;;;19.83;13.00;;;8.30;99.90;;;;;;5048464;28;20041;-84
2021/03/10 09:28:40;;;;;;;15.93;11.32;;;8.60;99.90;;;;;;5083405;23;20050;-79
2021/03/10 09:31:16;;;;;;;17.27;11.75;;;8.90;99.90;;;;;;4996352;28;20045;-79
2021/03/10 09:33:43;;;;;;;15.25;10.95;;;9.40;99.90;;;;;;4994741;28;20054;-79
2021/03/10 09:36:09;;;;;;;16.15;11.82;;;10.10;99.90;;;;;;4995386;28;20050;-80
2021/03/10 09:38:36;;;;;;;16.35;11.43;;;10.50;99.90;;;;;;4997314;28;20082;-79
2021/03/10 09:41:05;;;;;;;14.32;10.90;;;11.20;99.90;;;;;;4996562;28;20104;-78
2021/03/10 09:43:33;;;;;;;16.67;11.05;;;11.50;99.90;;;;;;4996917;28;20043;-79
2021/03/10 09:46:05;;;;;;;15.93;11.30;;;11.60;99.90;;;;;;4994559;28;20109;-79
2021/03/10 09:48:38;;;;;;;16.92;12.18;;;11.30;99.90;;;;;;4995816;28;20073;-78
2021/03/10 09:51:14;;;;;;;17.40;11.32;;;11.10;99.90;;;;;;4994993;28;20050;-79
2021/03/10 09:53:48;;;;;;;20.23;11.93;;;11.30;99.90;;;;;;4994941;28;20051;-79
2021/03/10 09:56:17;;;;;;;21.42;13.98;;;11.30;99.90;;;;;;4994579;28;20046;-79
2021/03/10 09:58:55;;;;;;;20.65;13.27;;;11.30;99.90;;;;;;4996029;28;20414;-79
2021/03/10 10:01:22;;;;;;;18.05;12.25;;;11.50;99.90;;;;;;4994631;28;20419;-79
2021/03/10 10:03:49;;;;;;;15.35;11.52;;;11.90;99.90;;;;;;4995536;28;20054;-79
2021/03/10 10:06:17;;;;;;;16.13;12.07;;;11.60;99.90;;;;;;4994213;28;20046;-79
2021/03/10 10:08:44;;;;;;;16.90;10.85;;;11.50;99.90;;;;;;4995494;28;20459;-79
2021/03/10 10:11:12;;;;;;;16.13;11.27;;;11.30;99.90;;;;;;4995256;28;20518;-79
2021/03/10 10:13:44;;;;;;;12.85;10.25;;;11.40;99.90;;;;;;4995389;28;20055;-79
2021/03/10 10:16:11;;;;;;;16.90;11.75;;;11.40;99.90;;;;;;4993792;28;20050;-79
2021/03/10 10:18:44;;;;;;;15.98;12.30;;;11.10;99.90;;;;;;4993625;28;20133;-79
2021/03/10 10:21:11;;;;;;;15.82;12.55;;;10.80;99.90;;;;;;4995327;28;20462;-79
2021/03/10 10:23:38;;;;;;;16.38;12.98;;;10.60;99.90;;;;;;4994677;28;20411;-79
2021/03/10 10:26:04;;;;;;;19.20;13.57;;;9.60;99.90;;;;;;4995396;28;20088;-79
2021/03/10 10:28:31;;;;;;;17.55;12.30;;;9.40;99.90;;;;;;4999901;28;20237;-78
2021/03/10 10:30:59;;;;;;;15.52;12.13;;;9.80;99.90;;;;;;5014718;28;20173;-79
2021/03/10 10:33:26;;;;;;;14.05;10.70;;;10.40;99.90;;;;;;5014878;28;20057;-80
2021/03/10 10:35:53;;;;;;;16.38;12.07;;;11.00;99.90;;;;;;5013860;28;20045;-79
2021/03/10 10:38:20;;;;;;;18.40;13.85;;;10.00;99.90;;;;;;5014031;28;20045;-78
2021/03/10 10:40:46;;;;;;;17.23;12.75;;;9.60;99.90;;;;;;5015013;28;20133;-79
2021/03/10 10:43:12;;;;;;;15.77;12.43;;;9.40;99.90;;;;;;5015335;28;20049;-78
2021/03/10 10:45:38;;;;;;;16.65;12.43;;;9.20;99.90;;;;;;5015513;28;20495;-79
2021/03/10 10:48:05;;;;;;;18.08;11.98;;;9.30;99.90;;;;;;5013423;28;20054;-78
2021/03/10 10:50:32;;;;;;;15.30;11.18;;;9.20;99.90;;;;;;5016515;28;20054;-78
2021/03/10 10:53:04;;;;;;;15.02;11.38;;;9.30;99.90;;;;;;5015886;28;20521;-78
2021/03/10 10:55:31;;;;;;;15.65;11.77;;;9.60;99.90;;;;;;5013953;28;20477;-79
2021/03/10 10:57:59;;;;;;;15.70;11.70;;;9.80;99.90;;;;;;5015882;28;20050;-79
2021/03/10 11:00:27;;;;;;;16.08;12.32;;;9.80;99.90;;;;;;5015308;28;20387;-78
2021/03/10 11:02:53;;;;;;;18.05;11.23;;;9.70;99.90;;;;;;5015311;28;20073;-78
2021/03/10 11:05:20;;;;;;;14.63;11.48;;;10.00;99.90;;;;;;5013541;28;20450;-79
2021/03/10 11:07:46;;;;;;;15.88;11.85;;;10.20;99.90;;;;;;5013309;28;20053;-79
2021/03/10 11:10:13;;;;;;;15.15;10.82;;;10.20;99.90;;;;;;5014081;28;20108;-79
2021/03/10 11:12:40;;;;;;;12.68;8.90;;;10.70;99.90;;;;;;5012700;28;20140;-79
2021/03/10 11:15:08;;;;;;;12.25;9.82;;;12.40;99.90;;;;;;5012622;28;20095;-79
2021/03/10 11:17:35;;;;;;;12.80;10.68;;;14.00;90.10;;;;;;5012606;28;20046;-79
2021/03/10 11:20:06;;;;;;;12.52;9.57;;;12.80;85.00;;;;;;5012550;28;20049;-79
2021/03/10 11:22:34;;;;;;;55.83;14.35;;;11.80;86.80;;;;;;5024739;28;20076;-79
2021/03/10 11:25:01;;;;;;;16.38;10.38;;;11.10;91.30;;;;;;5031401;28;20046;-80
2021/03/10 11:27:27;;;;;;;18.17;10.75;;;10.30;93.70;;;;;;5025263;28;20042;-81
2021/03/10 11:29:53;;;;;;;14.25;10.52;;;10.40;98.80;;;;;;5023504;28;20056;-80
2021/03/10 11:32:20;;;;;;;16.23;9.48;;;10.70;99.90;;;;;;5025005;28;20049;-79
2021/03/10 11:34:46;;;;;;;16.83;11.75;;;11.70;96.20;;;;;;5026234;28;20054;-79
2021/03/10 11:37:14;;;;;;;27.13;12.95;;;12.30;94.80;;;;;;5032464;28;20049;-79
2021/03/10 11:39:41;;;;;;;165.00;100.00;;;12.40;90.50;;;;;;5025139;28;20076;-80
2021/03/10 11:42:07;;;;;;;49.60;27.95;;;11.70;90.80;;;;;;5021881;28;20511;-80
2021/03/10 11:44:35;;;;;;;13.35;10.15;;;11.70;94.10;;;;;;5021642;28;20050;-79
2021/03/10 11:47:01;;;;;;;53.00;26.75;;;11.60;95.90;;;;;;5021158;28;20128;-80
2021/03/10 11:49:28;;;;;;;20.65;13.57;;;12.00;94.50;;;;;;5020718;28;20081;-80
2021/03/10 11:51:54;;;;;;;24.63;17.52;;;12.10;95.50;;;;;;5021816;28;20517;-80
2021/03/10 11:54:23;;;;;;;17.02;10.95;;;12.50;93.70;;;;;;5020816;28;20138;-79
2021/03/10 11:56:49;;;;;;;30.08;14.88;;;11.30;95.60;;;;;;5020409;28;20073;-79
2021/03/10 11:59:16;;;;;;;30.70;11.80;;;10.90;97.30;;;;;;5021064;28;20073;-79
2021/03/10 12:01:43;;;;;;;28.00;11.50;;;11.20;95.00;;;;;;5019994;28;20050;-79
2021/03/10 12:04:09;;;;;;;16.35;9.88;;;11.60;92.80;;;;;;5019597;28;20050;-79
2021/03/10 12:06:36;;;;;;;11.75;9.57;;;11.70;94.60;;;;;;5020845;28;20050;-80
2021/03/10 12:09:04;;;;;;;13.73;9.57;;;11.70;93.30;;;;;;5020908;28;20050;-79
2021/03/10 12:11:31;;;;;;;12.18;9.60;;;11.40;94.60;;;;;;5003609;28;20080;-79
2021/03/10 12:14:13;;;;;;;20.83;11.15;;;11.10;95.50;;;;;;5004890;28;20050;-79
2021/03/10 12:16:40;;;;;;;18.95;12.05;;;10.60;96.50;;;;;;5010358;28;20038;-80
2021/03/10 12:19:07;;;;;;;15.05;10.73;;;9.80;99.90;;;;;;5011602;28;20132;-79
2021/03/10 12:21:34;;;;;;;16.75;11.68;;;9.30;99.90;;;;;;5010025;28;20120;-78
2021/03/10 12:24:00;;;;;;;16.75;11.40;;;9.10;99.90;;;;;;5007663;28;20073;-79
2021/03/10 12:26:26;;;;;;;23.63;11.85;;;9.00;99.90;;;;;;5009510;28;20077;-78
2021/03/10 12:28:57;;;;;;;17.10;11.95;;;9.00;99.90;;;;;;5013457;28;20096;-79
2021/03/10 12:31:23;;;;;;;17.42;12.75;;;8.90;99.90;;;;;;5018717;28;20473;-78
2021/03/10 12:33:50;;;;;;;18.45;12.52;;;9.00;99.90;;;;;;5001862;28;20053;-80
2021/03/10 12:36:16;;;;;;;17.67;12.18;;;9.50;99.90;;;;;;5018895;28;20046;-80
2021/03/10 12:38:42;;;;;;;17.42;12.70;;;9.70;99.90;;;;;;5001127;28;20086;-80
2021/03/10 12:41:08;;;;;;;18.45;12.60;;;9.70;99.90;;;;;;5001553;28;20101;-79
2021/03/10 12:43:37;;;;;;;26.23;13.05;;;9.60;99.90;;;;;;5019953;28;20499;-79
2021/03/10 12:46:04;;;;;;;22.17;13.18;;;9.20;99.90;;;;;;5011919;28;20085;-78